createdAt,value
2023-02-14T00:01:45.904Z,27.13
2023-02-14T00:04:15.178Z,34.83
2023-02-14T00:06:43.284Z,35.00
2023-02-14T00:09:14.078Z,31.42
2023-02-14T00:11:42.293Z,42.08
2023-02-14T00:14:28.963Z,37.53
2023-02-14T00:16:57.027Z,33.50
2023-02-14T00:19:24.929Z,26.95
2023-02-14T00:21:53.068Z,21.42
2023-02-14T00:24:26.421Z,17.55
2023-02-14T00:26:54.485Z,16.02
2023-02-14T00:29:28.666Z,14.65
2023-02-14T00:31:56.696Z,12.60
2023-02-14T00:34:25.527Z,14.95
2023-02-14T00:36:54.156Z,19.20
2023-02-14T00:39:22.028Z,20.40
2023-02-14T00:41:50.069Z,19.60
2023-02-14T00:44:18.059Z,22.92
2023-02-14T00:46:46.277Z,21.92
2023-02-14T00:49:14.313Z,15.73
2023-02-14T00:51:42.513Z,14.68
2023-02-14T00:54:10.382Z,12.40
2023-02-14T00:56:38.307Z,10.32
2023-02-14T00:59:06.258Z,13.60
2023-02-14T01:01:34.232Z,9.60
2023-02-14T01:04:04.732Z,6.65
2023-02-14T01:06:32.640Z,9.80
2023-02-14T01:09:00.510Z,10.82
2023-02-14T01:11:30.216Z,10.13
2023-02-14T01:13:59.112Z,11.23
2023-02-14T01:16:28.477Z,7.22
2023-02-14T01:18:57.079Z,8.45
2023-02-14T01:21:27.923Z,7.72
2023-02-14T01:23:59.964Z,10.02
2023-02-14T01:26:29.287Z,7.95
2023-02-14T01:28:57.306Z,10.30
2023-02-14T01:31:28.821Z,10.02
2023-02-14T01:33:58.688Z,7.90
2023-02-14T01:36:30.098Z,7.65
2023-02-14T01:39:03.006Z,6.72
2023-02-14T01:41:33.817Z,6.75
2023-02-14T01:44:28.861Z,6.85
2023-02-14T01:46:58.130Z,8.73
2023-02-14T01:49:40.508Z,7.00
2023-02-14T01:52:20.293Z,14.48
2023-02-14T01:55:01.514Z,23.17
2023-02-14T01:57:37.791Z,14.68
2023-02-14T02:00:25.690Z,10.52
2023-02-14T02:02:53.994Z,8.23
2023-02-14T02:05:24.108Z,7.72
2023-02-14T02:07:55.675Z,7.32
2023-02-14T02:10:23.706Z,2.92
2023-02-14T02:12:53.682Z,5.65
2023-02-14T02:15:26.023Z,5.03
2023-02-14T02:18:10.813Z,7.10
2023-02-14T02:21:06.236Z,4.95
2023-02-14T02:24:09.407Z,7.13
2023-02-14T02:27:19.324Z,4.38
2023-02-14T02:30:38.536Z,6.07
2023-02-14T02:33:27.868Z,4.07
2023-02-14T02:36:07.135Z,4.63
2023-02-14T02:39:12.520Z,7.82
2023-02-14T02:42:02.196Z,4.28
2023-02-14T02:45:03.075Z,4.68
2023-02-14T02:47:37.978Z,6.18
2023-02-14T02:50:46.844Z,4.85
2023-02-14T02:53:38.411Z,5.07
2023-02-14T02:56:35.374Z,5.32
2023-02-14T02:59:06.967Z,5.13
2023-02-14T03:01:38.200Z,3.92
2023-02-14T03:04:29.480Z,3.70
2023-02-14T03:07:00.205Z,3.00
2023-02-14T03:09:29.507Z,5.50
2023-02-14T03:12:00.240Z,4.82
2023-02-14T03:14:39.611Z,2.38
2023-02-14T03:17:23.498Z,4.65
2023-02-14T03:20:28.866Z,3.70
2023-02-14T03:23:32.205Z,1.77
2023-02-14T03:26:37.173Z,4.75
2023-02-14T03:29:20.100Z,2.13
2023-02-14T03:32:03.403Z,5.95
2023-02-14T03:34:55.659Z,5.20
2023-02-14T03:37:57.842Z,4.60
2023-02-14T03:40:36.958Z,2.78
2023-02-14T03:43:11.313Z,4.55
2023-02-14T03:45:45.718Z,4.60
2023-02-14T03:48:16.997Z,3.15
2023-02-14T03:50:48.080Z,2.85
2023-02-14T03:53:19.165Z,4.28
2023-02-14T03:55:55.823Z,3.20
2023-02-14T03:58:30.408Z,6.18
2023-02-14T04:01:11.178Z,2.50
2023-02-14T04:03:42.642Z,3.47
2023-02-14T04:06:11.084Z,2.28
2023-02-14T04:08:39.003Z,4.32
2023-02-14T04:11:07.198Z,2.58
2023-02-14T04:13:37.304Z,3.53
2023-02-14T04:16:05.883Z,4.47
2023-02-14T04:18:52.693Z,3.90
2023-02-14T04:21:20.613Z,5.35
2023-02-14T04:23:48.512Z,3.00
2023-02-14T04:26:16.367Z,4.43
2023-02-14T04:28:44.149Z,3.10
2023-02-14T04:31:12.004Z,4.43
2023-02-14T04:33:39.926Z,3.80
2023-02-14T04:36:07.985Z,7.07
2023-02-14T04:38:36.149Z,2.90
2023-02-14T04:41:04.098Z,2.50
2023-02-14T04:43:32.202Z,4.40
2023-02-14T04:46:00.224Z,2.30
2023-02-14T04:48:28.018Z,2.92
2023-02-14T04:50:56.169Z,4.18
2023-02-14T04:53:24.117Z,5.00
2023-02-14T04:55:52.171Z,2.97
2023-02-14T04:58:19.988Z,3.38
2023-02-14T05:00:48.419Z,4.07
2023-02-14T05:03:16.313Z,4.15
2023-02-14T05:05:44.347Z,3.88
2023-02-14T05:08:12.306Z,4.07
2023-02-14T05:10:40.194Z,2.33
2023-02-14T05:13:08.282Z,2.90
2023-02-14T05:15:38.371Z,3.63
2023-02-14T05:18:06.606Z,1.67
2023-02-14T05:20:34.472Z,2.65
2023-02-14T05:23:03.714Z,3.33
2023-02-14T05:25:32.252Z,4.97
2023-02-14T05:28:00.134Z,6.32
2023-02-14T05:30:29.288Z,5.82
2023-02-14T05:32:57.145Z,2.50
2023-02-14T05:35:24.983Z,3.78
2023-02-14T05:37:52.887Z,4.53
2023-02-14T05:40:21.049Z,2.13
2023-02-14T05:42:48.923Z,2.45
2023-02-14T05:45:16.729Z,4.20
2023-02-14T05:47:44.794Z,3.28
2023-02-14T05:50:12.606Z,5.43
2023-02-14T05:52:40.533Z,5.00
2023-02-14T05:55:08.916Z,3.10
2023-02-14T05:57:36.982Z,4.20
2023-02-14T06:00:07.152Z,4.82
2023-02-14T06:02:40.700Z,4.95
2023-02-14T06:05:09.087Z,5.47
2023-02-14T06:07:37.389Z,4.70
2023-02-14T06:10:05.589Z,8.98
2023-02-14T06:12:33.595Z,4.78
2023-02-14T06:15:01.515Z,3.90
2023-02-14T06:17:29.566Z,5.30
2023-02-14T06:19:57.417Z,5.25
2023-02-14T06:22:25.516Z,3.78
2023-02-14T06:24:53.502Z,7.82
2023-02-14T06:27:21.754Z,6.18
2023-02-14T06:29:50.014Z,4.90
2023-02-14T06:32:18.116Z,5.03
2023-02-14T06:34:46.058Z,6.90
2023-02-14T06:37:14.024Z,5.65
2023-02-14T06:39:42.109Z,4.60
2023-02-14T06:42:09.977Z,4.05
2023-02-14T06:44:37.896Z,3.53
2023-02-14T06:47:06.262Z,5.43
2023-02-14T06:49:34.089Z,3.83
2023-02-14T06:52:02.286Z,4.50
2023-02-14T06:54:30.141Z,3.22
2023-02-14T06:56:58.321Z,6.45
2023-02-14T06:59:26.184Z,6.30
2023-02-14T07:01:54.435Z,5.95
2023-02-14T07:04:22.325Z,5.93
2023-02-14T07:06:50.210Z,7.93
2023-02-14T07:09:18.700Z,6.57
2023-02-14T07:11:46.855Z,8.38
2023-02-14T07:14:14.812Z,6.30
2023-02-14T07:16:42.670Z,4.75
2023-02-14T07:19:10.603Z,5.53
2023-02-14T07:21:38.441Z,7.00
2023-02-14T07:24:06.437Z,6.00
2023-02-14T07:26:34.624Z,10.52
2023-02-14T07:29:02.476Z,7.53
2023-02-14T07:31:30.461Z,10.88
2023-02-14T07:34:01.147Z,6.88
2023-02-14T07:36:29.065Z,6.00
2023-02-14T07:38:57.528Z,12.73
2023-02-14T07:41:25.826Z,9.70
2023-02-14T07:43:54.110Z,7.32
2023-02-14T07:46:22.151Z,7.88
2023-02-14T07:48:52.041Z,4.38
2023-02-14T07:51:20.057Z,14.38
2023-02-14T07:53:48.733Z,10.20
2023-02-14T07:56:16.685Z,7.88
2023-02-14T07:58:44.539Z,10.52
2023-02-14T08:01:12.556Z,11.70
2023-02-14T08:03:40.473Z,11.00
2023-02-14T08:06:08.406Z,12.93
2023-02-14T08:08:36.503Z,13.50
2023-02-14T08:11:04.353Z,12.38
2023-02-14T08:13:32.232Z,11.27
2023-02-14T08:16:06.530Z,10.98
2023-02-14T08:18:40.097Z,11.50
2023-02-14T08:21:10.503Z,18.83
2023-02-14T08:23:39.050Z,8.27
2023-02-14T08:26:07.951Z,8.50
2023-02-14T08:28:36.078Z,9.35
2023-02-14T08:31:04.768Z,8.48
2023-02-14T08:33:32.809Z,10.55
2023-02-14T08:36:01.022Z,11.07
2023-02-14T08:38:29.378Z,13.80
2023-02-14T08:41:05.057Z,10.32
2023-02-14T08:43:34.977Z,11.15
2023-02-14T08:46:03.400Z,9.07
2023-02-14T08:48:31.526Z,8.07
2023-02-14T08:50:59.883Z,14.32
2023-02-14T08:53:28.036Z,9.90
2023-02-14T08:55:56.027Z,8.70
2023-02-14T08:58:23.973Z,8.20
2023-02-14T09:00:51.851Z,6.85
2023-02-14T09:03:19.818Z,12.38
2023-02-14T09:05:47.928Z,11.55
2023-02-14T09:08:15.973Z,14.63
2023-02-14T09:10:44.324Z,9.88
2023-02-14T09:13:12.300Z,13.63
2023-02-14T09:15:40.629Z,8.35
2023-02-14T09:18:08.597Z,10.02
2023-02-14T09:20:36.896Z,13.65
2023-02-14T09:23:04.732Z,10.63
2023-02-14T09:25:33.130Z,12.48
2023-02-14T09:28:01.056Z,8.18
2023-02-14T09:30:29.006Z,9.80
2023-02-14T09:32:57.208Z,12.70
2023-02-14T09:35:25.072Z,8.93
2023-02-14T09:37:52.929Z,12.15
2023-02-14T09:40:21.537Z,7.13
2023-02-14T09:42:55.674Z,13.70
2023-02-14T09:45:27.768Z,12.80
2023-02-14T09:48:13.839Z,6.53
2023-02-14T09:50:49.336Z,8.55
2023-02-14T09:53:30.360Z,9.15
2023-02-14T09:56:12.665Z,12.82
2023-02-14T09:58:50.026Z,8.82
2023-02-14T10:01:26.010Z,9.23
2023-02-14T10:04:02.399Z,9.57
2023-02-14T10:06:59.167Z,10.82
2023-02-14T10:09:37.749Z,13.82
2023-02-14T10:12:11.168Z,8.23
2023-02-14T10:14:41.254Z,11.45
2023-02-14T10:17:21.117Z,10.25
2023-02-14T10:20:03.153Z,9.93
2023-02-14T10:22:50.583Z,13.52
2023-02-14T10:25:28.694Z,9.70
2023-02-14T10:28:01.727Z,8.90
2023-02-14T10:30:39.407Z,11.80
2023-02-14T10:33:12.514Z,7.20
2023-02-14T10:35:50.453Z,12.88
2023-02-14T10:38:47.499Z,7.28
2023-02-14T10:41:39.729Z,12.27
2023-02-14T10:44:40.352Z,7.28
2023-02-14T10:47:36.083Z,10.27
2023-02-14T10:50:13.972Z,12.00
2023-02-14T10:52:59.652Z,11.85
2023-02-14T10:55:38.934Z,8.07
2023-02-14T10:58:10.283Z,7.75
2023-02-14T11:01:05.747Z,7.50
2023-02-14T11:03:35.264Z,12.65
2023-02-14T11:06:04.152Z,12.07
2023-02-14T11:08:37.766Z,14.88
2023-02-14T11:11:05.674Z,12.70
2023-02-14T11:13:37.124Z,7.25
2023-02-14T11:16:09.216Z,11.13
2023-02-14T11:18:40.205Z,19.52
2023-02-14T11:21:21.880Z,11.57
2023-02-14T11:23:51.825Z,8.20
2023-02-14T11:26:25.433Z,10.63
2023-02-14T11:29:04.130Z,17.95
2023-02-14T11:31:38.887Z,10.55
2023-02-14T11:34:37.020Z,18.42
2023-02-14T11:37:26.267Z,14.10
2023-02-14T11:40:00.035Z,13.90
2023-02-14T11:46:28.400Z,16.67
2023-02-14T11:49:15.301Z,15.55
2023-02-14T11:51:45.741Z,10.82
2023-02-14T11:54:25.835Z,7.63
2023-02-14T11:57:02.838Z,7.35
2023-02-14T11:59:37.480Z,10.90
2023-02-14T12:02:43.153Z,10.35
2023-02-14T12:05:31.009Z,11.70
2023-02-14T12:08:04.700Z,5.53
2023-02-14T12:10:37.781Z,5.40
2023-02-14T12:13:08.701Z,6.57
2023-02-14T12:15:57.386Z,5.00
2023-02-14T12:18:47.883Z,4.32
2023-02-14T12:21:37.040Z,3.60
2023-02-14T12:24:23.754Z,4.47
2023-02-14T12:27:02.828Z,5.40
2023-02-14T12:29:44.887Z,6.22
2023-02-14T12:32:21.965Z,3.58
2023-02-14T12:34:50.832Z,4.00
2023-02-14T12:38:04.742Z,3.75
2023-02-14T12:40:51.057Z,4.32
2023-02-14T12:43:43.770Z,4.15
2023-02-14T12:46:30.225Z,6.32
2023-02-14T12:49:23.334Z,5.90
2023-02-14T12:52:12.385Z,7.28
2023-02-14T12:55:12.772Z,6.40
2023-02-14T12:57:58.076Z,6.00
2023-02-14T13:00:32.022Z,4.85
2023-02-14T13:03:21.799Z,6.40
2023-02-14T13:05:58.703Z,6.45
2023-02-14T13:08:48.650Z,7.32
2023-02-14T13:11:49.104Z,5.63
2023-02-14T13:14:41.749Z,10.95
2023-02-14T13:17:35.073Z,10.35
2023-02-14T13:20:18.243Z,15.43
2023-02-14T13:22:47.693Z,16.38
2023-02-14T13:25:21.933Z,15.55
2023-02-14T13:27:50.544Z,16.15
2023-02-14T13:30:29.185Z,13.77
2023-02-14T13:33:01.888Z,17.17
2023-02-14T13:35:31.391Z,15.32
2023-02-14T13:38:03.237Z,13.98
2023-02-14T13:40:32.067Z,14.75
2023-02-14T13:43:01.583Z,14.65
2023-02-14T13:45:35.626Z,14.02
2023-02-14T13:48:13.710Z,19.57
2023-02-14T13:50:59.700Z,18.88
2023-02-14T13:53:45.747Z,21.35
2023-02-14T13:56:13.754Z,19.10
2023-02-14T13:59:02.085Z,15.88
2023-02-14T14:01:51.046Z,18.58
2023-02-14T14:04:32.112Z,12.48
2023-02-14T14:07:06.254Z,11.13
2023-02-14T14:09:43.598Z,7.95
2023-02-14T14:12:26.905Z,7.75
2023-02-14T14:15:07.245Z,10.05
2023-02-14T14:17:47.194Z,9.35
2023-02-14T14:20:44.453Z,7.68
2023-02-14T14:23:39.006Z,9.80
2023-02-14T14:26:37.006Z,10.57
2023-02-14T14:29:20.572Z,8.10
2023-02-14T14:31:51.710Z,12.18
2023-02-14T14:34:20.742Z,9.35
2023-02-14T14:36:49.561Z,16.80
2023-02-14T14:39:28.732Z,30.30
2023-02-14T14:42:06.932Z,20.65
2023-02-14T14:44:38.155Z,20.95
2023-02-14T14:47:06.897Z,20.83
2023-02-14T14:49:34.835Z,19.65
2023-02-14T14:57:02.213Z,10.18
2023-02-14T14:59:31.475Z,10.90
2023-02-14T15:01:59.884Z,10.00
2023-02-14T15:04:33.238Z,9.20
2023-02-14T15:07:27.955Z,7.32
2023-02-14T15:09:56.349Z,8.05
2023-02-14T15:12:44.040Z,7.30
2023-02-14T15:15:16.243Z,5.75
2023-02-14T15:17:45.899Z,6.53
2023-02-14T15:20:23.504Z,7.55
2023-02-14T15:22:53.190Z,7.55
2023-02-14T15:25:34.886Z,7.45
2023-02-14T15:28:03.046Z,7.25
2023-02-14T15:30:35.163Z,5.88
2023-02-14T15:33:05.399Z,10.30
2023-02-14T15:35:37.075Z,8.32
2023-02-14T15:38:07.249Z,6.68
2023-02-14T15:40:36.967Z,11.90
2023-02-14T15:43:22.401Z,12.45
2023-02-14T15:45:58.146Z,8.23
2023-02-14T15:48:34.287Z,6.75
2023-02-14T15:51:05.458Z,6.13
2023-02-14T15:53:45.942Z,7.07
2023-02-14T15:56:35.886Z,6.07
2023-02-14T15:59:34.925Z,5.65
2023-02-14T16:02:38.078Z,6.85
2023-02-14T16:05:22.177Z,7.80
2023-02-14T16:08:05.285Z,7.50
2023-02-14T16:10:43.720Z,7.88
2023-02-14T16:13:15.191Z,5.70
2023-02-14T16:15:58.232Z,23.67
2023-02-14T16:18:46.202Z,6.40
2023-02-14T16:23:46.284Z,6.18
2023-02-14T16:26:14.953Z,6.80
2023-02-14T16:28:43.582Z,5.80
2023-02-14T16:31:17.101Z,15.80
2023-02-14T16:33:45.585Z,11.80
2023-02-14T16:36:22.085Z,24.05
2023-02-14T16:38:51.035Z,30.47
2023-02-14T16:41:24.996Z,29.70
2023-02-14T16:44:00.422Z,26.52
2023-02-14T16:46:36.165Z,20.88
2023-02-14T16:49:04.421Z,20.83
2023-02-14T16:51:34.504Z,13.90
2023-02-14T16:54:13.879Z,56.65
2023-02-14T16:56:57.270Z,90.53
2023-02-14T16:59:25.361Z,83.20
2023-02-14T17:01:53.725Z,49.53
2023-02-14T17:04:28.978Z,30.80
2023-02-14T17:06:59.873Z,18.88
2023-02-14T17:17:34.298Z,11.18
2023-02-14T17:20:04.984Z,11.30
2023-02-14T17:22:34.701Z,9.48
2023-02-14T17:25:04.470Z,8.70
2023-02-14T17:27:36.315Z,10.15
2023-02-14T17:30:06.481Z,7.50
2023-02-14T17:32:44.827Z,6.93
2023-02-14T17:35:14.431Z,9.10
2023-02-14T17:37:50.204Z,7.85
2023-02-14T17:40:18.297Z,8.90
2023-02-14T17:42:52.765Z,8.57
2023-02-14T17:45:21.254Z,12.52
2023-02-14T17:47:49.841Z,9.48
2023-02-14T17:50:20.676Z,11.25
2023-02-14T17:52:50.784Z,16.45
2023-02-14T17:55:23.922Z,14.52
2023-02-14T17:57:55.420Z,10.98
2023-02-14T18:00:27.200Z,13.90
2023-02-14T18:02:55.575Z,13.57
2023-02-14T18:05:26.722Z,15.10
2023-02-14T18:07:56.245Z,11.13
2023-02-14T18:10:35.245Z,9.07
2023-02-14T18:13:03.935Z,9.20
2023-02-14T18:15:31.914Z,7.28
2023-02-14T18:17:59.858Z,8.10
2023-02-14T18:20:27.988Z,8.50
2023-02-14T18:22:58.560Z,8.82
2023-02-14T18:25:26.718Z,8.25
2023-02-14T18:27:55.601Z,10.10
2023-02-14T18:30:24.724Z,10.88
2023-02-14T18:32:54.173Z,11.02
2023-02-14T18:35:22.064Z,12.07
2023-02-14T18:37:50.188Z,11.18
2023-02-14T18:40:20.861Z,11.48
2023-02-14T18:42:48.987Z,12.25
2023-02-14T18:45:17.739Z,11.52
2023-02-14T18:47:45.722Z,10.45
2023-02-14T18:50:13.641Z,10.63
2023-02-14T18:52:41.691Z,11.35
2023-02-14T18:55:10.083Z,11.25
2023-02-14T18:57:38.052Z,11.02
2023-02-14T19:00:12.460Z,10.55
2023-02-14T19:02:40.403Z,13.43
2023-02-14T19:05:09.427Z,14.18
2023-02-14T19:07:37.399Z,12.35
2023-02-14T19:10:06.417Z,10.18
2023-02-14T19:13:20.991Z,10.75
2023-02-14T19:15:49.809Z,12.02
2023-02-14T19:18:18.394Z,11.93
2023-02-14T19:20:46.406Z,13.02
2023-02-14T19:23:15.217Z,12.52
2023-02-14T19:25:43.634Z,13.60
2023-02-14T19:28:11.866Z,14.13
2023-02-14T19:30:39.861Z,14.48
2023-02-14T19:33:08.365Z,13.70
2023-02-14T19:35:36.591Z,15.30
2023-02-14T19:38:04.784Z,13.07
2023-02-14T19:40:32.778Z,14.38
2023-02-14T19:43:00.787Z,13.23
2023-02-14T19:45:32.827Z,13.45
2023-02-14T19:48:03.627Z,15.25
2023-02-14T19:50:31.867Z,17.27
2023-02-14T19:53:00.556Z,14.48
2023-02-14T19:55:29.773Z,14.70
2023-02-14T19:57:57.978Z,14.50
2023-02-14T20:00:26.085Z,14.80
2023-02-14T20:02:54.491Z,19.95
2023-02-14T20:05:23.822Z,15.52
2023-02-14T20:07:54.777Z,17.15
2023-02-14T20:10:22.897Z,17.65
2023-02-14T20:12:50.844Z,16.85
2023-02-14T20:15:19.427Z,17.95
2023-02-14T20:17:47.445Z,18.35
2023-02-14T20:20:17.026Z,21.23
2023-02-14T20:22:45.510Z,20.48
2023-02-14T20:25:13.494Z,18.77
2023-02-14T20:27:41.511Z,17.85
2023-02-14T20:30:10.737Z,19.52
2023-02-14T20:32:38.684Z,21.67
2023-02-14T20:35:09.827Z,22.20
2023-02-14T20:37:37.740Z,20.50
2023-02-14T20:40:07.365Z,21.75
2023-02-14T20:42:36.778Z,18.88
2023-02-14T20:45:04.807Z,20.88
2023-02-14T20:47:32.731Z,19.55
2023-02-14T20:50:06.479Z,20.70
2023-02-14T20:52:47.529Z,20.33
2023-02-14T20:55:16.364Z,20.88
2023-02-14T20:57:54.944Z,21.80
2023-02-14T21:00:25.986Z,19.77
2023-02-14T21:02:57.657Z,19.30
2023-02-14T21:22:38.433Z,15.75
2023-02-14T21:25:07.897Z,15.65
2023-02-14T21:27:38.917Z,16.65
2023-02-14T21:30:07.568Z,17.15
2023-02-14T21:32:35.604Z,16.05
2023-02-14T21:35:03.561Z,18.23
2023-02-14T21:37:32.847Z,16.80
2023-02-14T21:40:00.723Z,16.45
2023-02-14T21:42:28.610Z,18.30
2023-02-14T21:45:14.834Z,18.55
2023-02-14T21:47:42.780Z,17.77
2023-02-14T21:50:29.382Z,18.05
2023-02-14T21:53:00.276Z,17.17
2023-02-14T21:55:28.220Z,17.77
2023-02-14T21:57:56.715Z,18.20
2023-02-14T22:00:24.577Z,17.92
2023-02-14T22:02:54.536Z,19.13
2023-02-14T22:05:23.062Z,19.02
2023-02-14T22:07:51.346Z,18.70
2023-02-14T22:10:22.240Z,18.83
2023-02-14T22:12:51.518Z,19.45
2023-02-14T22:15:20.542Z,22.65
2023-02-14T22:17:48.417Z,21.55
2023-02-14T22:20:17.133Z,21.50
2023-02-14T22:22:45.061Z,22.63
2023-02-14T22:25:12.899Z,22.02
2023-02-14T22:27:43.425Z,21.73
2023-02-14T22:30:11.619Z,21.23
2023-02-14T22:32:42.751Z,20.13
2023-02-14T22:35:12.403Z,21.35
2023-02-14T22:37:40.329Z,22.52
2023-02-14T22:40:08.954Z,20.20
2023-02-14T22:42:40.387Z,20.77
2023-02-14T22:45:09.275Z,18.83
2023-02-14T22:47:37.056Z,20.00
2023-02-14T22:50:05.325Z,20.25
2023-02-14T22:52:35.123Z,22.05
2023-02-14T22:55:03.068Z,20.25
2023-02-14T22:57:32.254Z,21.45
2023-02-14T23:00:00.130Z,19.40
2023-02-14T23:02:27.989Z,20.30
2023-02-14T23:04:57.252Z,20.27
2023-02-14T23:07:25.288Z,18.67
2023-02-14T23:09:53.167Z,17.27
2023-02-14T23:12:39.453Z,18.80
2023-02-14T23:15:27.434Z,19.45
2023-02-14T23:21:00.174Z,19.42
2023-02-14T23:23:31.612Z,19.38
2023-02-14T23:26:00.878Z,18.38
2023-02-14T23:28:30.123Z,21.27
2023-02-14T23:31:01.881Z,21.65
2023-02-14T23:33:29.733Z,21.58
2023-02-14T23:35:57.618Z,21.45
2023-02-14T23:38:25.461Z,19.60
2023-02-14T23:41:11.762Z,18.58
2023-02-14T23:43:39.618Z,19.08
2023-02-14T23:46:07.489Z,19.75
2023-02-14T23:48:35.264Z,19.88
2023-02-14T23:51:03.255Z,20.80
2023-02-14T23:53:31.069Z,19.73
2023-02-14T23:56:03.566Z,21.17
2023-02-14T23:58:31.538Z,18.83
